WetterOnline ( http://www.wetteronline.de )

Wetter aktuell Belzig

Aktuelles Wetter: Wiesenburg (188m)

6-stündlich | Neueste Meldungen
Ortszeit Temperatur Wetter
Do, 17.01. 13:00 4.8° C wolkig
Do, 17.01. 7:00 4.1° C leichter Regen
Do, 17.01. 1:00 2.6° C bedeckt
Mi, 16.01. 19:00 3.9° C bedeckt
Mi, 16.01. 13:00 5.5° C bedeckt
Mi, 16.01. 7:00 4.8° C bewölkt
Mi, 16.01. 1:00 5.1° C bewölkt
Di, 15.01. 19:00 5.0° C bedeckt
Ortszeit Temperatur Wetter
Do, 17.01. 17:30 4.7° C bedeckt
Do, 17.01. 17:20 4.7° C bedeckt
Do, 17.01. 17:10 4.5° C leichter Regen
Do, 17.01. 17:00 4.6° C leichter Regen
Do, 17.01. 16:50 4.6° C leichter Regen
Do, 17.01. 16:40 4.5° C bewölkt
Do, 17.01. 16:30 4.4° C bewölkt
Do, 17.01. 16:00 4.7° C Sprühregen
Do, 17.01. 15:30 5.3° C bewölkt
Do, 17.01. 15:00 5.4° C bewölkt
Do, 17.01. 14:30 5.7° C bewölkt
Ortszeit Relative Feuchte Sichtweite
Do, 17.01. 13:00 78% 65 km
Do, 17.01. 7:00 77% 35 km
Do, 17.01. 1:00 78% 30 km
Mi, 16.01. 19:00 75% 29 km
Mi, 16.01. 13:00 82% 55 km
Mi, 16.01. 7:00 85% 20 km
Mi, 16.01. 1:00 93% 5.0 km
Di, 15.01. 19:00 87% 11 km
Ortszeit Relative Feuchte Sichtweite
Do, 17.01. 17:30 76% 70 km
Do, 17.01. 17:20 76% -
Do, 17.01. 17:10 78% -
Do, 17.01. 17:00 77% 35 km
Do, 17.01. 16:50 77% -
Do, 17.01. 16:40 77% -
Do, 17.01. 16:30 80% 65 km
Do, 17.01. 16:00 81% 16 km
Do, 17.01. 15:30 72% 65 km
Do, 17.01. 15:00 71% 70 km
Do, 17.01. 14:30 69% 45 km
Ortszeit Niederschlagsmenge Niederschlagsart
Do, 17.01. 13:00 0.1 l/m2 in 6 Std. Regen
Do, 17.01. 7:00 0.1 l/m2 in 12 Std. Regen
Do, 17.01. 1:00 0.0 l/m2 in 6 Std. -
Mi, 16.01. 19:00 0.1 l/m2 in 12 Std. -
Mi, 16.01. 13:00 0.1 l/m2 in 6 Std. Regen
Mi, 16.01. 7:00 0.5 l/m2 in 12 Std. Regen
Mi, 16.01. 1:00 0.5 l/m2 in 6 Std. Regen
Di, 15.01. 19:00 1 l/m2 in 12 Std. Regen
Ortszeit Niederschlagsmenge Niederschlagsart
Do, 17.01. 17:30 0.1 l/m2 in 1 Std. Schneeregen
Do, 17.01. 17:20 keine Meldung -
Do, 17.01. 17:10 keine Meldung -
Do, 17.01. 17:00 0.1 l/m2 in 1 Std. Regen
Do, 17.01. 16:50 keine Meldung -
Do, 17.01. 16:40 keine Meldung -
Do, 17.01. 16:30 0.1 l/m2 in 1 Std. Schneeregen
Do, 17.01. 16:00 0.1 l/m2 in 1 Std. Regen
Do, 17.01. 15:30 0.0 l/m2 in 1 Std. -
Do, 17.01. 15:00 0.0 l/m2 in 1 Std. -
Do, 17.01. 14:30 0.0 l/m2 in 1 Std. -
Ortszeit Stärke Spitze Richtung
km/h Bft. km/h Grad Sektor
Do, 17.01. 13:00 18 3 47 240° SW
Do, 17.01. 7:00 25 4 43 240° SW
Do, 17.01. 1:00 18 3 36 220° SW
Mi, 16.01. 19:00 22 4 40 230° SW
Mi, 16.01. 13:00 19 3 39 230° SW
Mi, 16.01. 7:00 22 4 58 250° W
Mi, 16.01. 1:00 28 4 54 260° W
Di, 15.01. 19:00 33 5 52 270° W
Ortszeit Stärke Spitze Richtung
km/h Bft. km/h Grad Sektor
Do, 17.01. 17:30 7 2 18 220° SW
Do, 17.01. 17:20 7 2 - 220° SW
Do, 17.01. 17:10 7 2 - 210° SW
Do, 17.01. 17:00 9 2 24 200° S
Do, 17.01. 16:50 9 2 - 200° S
Do, 17.01. 16:40 7 2 - 210° SW
Do, 17.01. 16:30 11 2 25 220° SW
Do, 17.01. 16:00 14 3 25 220° SW
Do, 17.01. 15:30 13 3 26 220° SW
Do, 17.01. 15:00 17 3 41 240° SW
Do, 17.01. 14:30 20 4 41 230° SW
Ortszeit Untergrenze Bedeckung Gattung
total tief tief mittel hoch
Do, 17.01. 13:00 540 m 6/8 - - - -
Do, 17.01. 7:00 660 m 8/8 8/8 - - -
Do, 17.01. 1:00 5100 m 8/8 8/8 - - -
Mi, 16.01. 19:00 840 m 8/8 8/8 - - -
Mi, 16.01. 13:00 660 m 8/8 8/8 - - -
Mi, 16.01. 7:00 1080 m 7/8 7/8 - - -
Mi, 16.01. 1:00 180 m 7/8 7/8 - - -
Di, 15.01. 19:00 330 m 8/8 8/8 - - -
Ortszeit Bedeckungsgrad in Achtel und Wolkenuntergrenze
Do, 17.01. 17:30 6(900m) 8(1110m)
Do, 17.01. 17:20 6(900m) 8(1110m)
Do, 17.01. 17:10 6(1020m) 7(1500m)
Do, 17.01. 17:00 1(1140m) 7(1500m) 8(3000m)
Do, 17.01. 16:50 1(1140m) 7(1500m) 8(3000m)
Do, 17.01. 16:40 5(1500m) 8(3300m) 8(4200m)
Do, 17.01. 16:30 7(2100m) 7(2400m) 8(4200m)
Do, 17.01. 16:00 3(540m) 8(780m) 8(4500m)
Do, 17.01. 15:30 1(750m) 7(1290m) 8(4200m)
Do, 17.01. 15:00 5(750m) 7(3900m) 8(4500m)
Do, 17.01. 14:30 5(780m) 6(960m) 7(4200m)
Ortszeit Luftdruck NN (hPa) Tendenz (hPa in 3 Std.)
Do, 17.01. 13:00 1001 - 0,3
Do, 17.01. 7:00 1000 + 0,3
Do, 17.01. 1:00 1001 - 2,5
Mi, 16.01. 19:00 1005 - 1,4
Mi, 16.01. 13:00 1008 - 1,4
Mi, 16.01. 7:00 1010 - 0,6
Mi, 16.01. 1:00 1010 - 0,2
Di, 15.01. 19:00 1009 - 0,5
Ortszeit Luftdruck NN (hPa) Tendenz (hPa in 3 Std.)
Do, 17.01. 17:30 998 - 1,3
Do, 17.01. 17:20 998 keine Meldung
Do, 17.01. 17:10 998 keine Meldung
Do, 17.01. 17:00 999 - 1,2
Do, 17.01. 16:50 999 keine Meldung
Do, 17.01. 16:40 998 keine Meldung
Do, 17.01. 16:30 999 - 1,3
Do, 17.01. 16:00 999 - 1,5
Do, 17.01. 15:30 999 - 1,5
Do, 17.01. 15:00 999 - 1,4
Do, 17.01. 14:30 999 - 1,4
Ortszeit Schneehöhe (cm)
Do, 17.01. 13:00 0
Do, 17.01. 7:00 0
Do, 17.01. 1:00 0
Mi, 16.01. 19:00 0
Mi, 16.01. 13:00 0
Mi, 16.01. 7:00 0
Mi, 16.01. 1:00 0
Di, 15.01. 19:00 0
Ortszeit Schneehöhe (cm)
Do, 17.01. 17:30 0
Do, 17.01. 17:20 0
Do, 17.01. 17:10 0
Do, 17.01. 17:00 0
Do, 17.01. 16:50 0
Do, 17.01. 16:40 0
Do, 17.01. 16:30 0
Do, 17.01. 16:00 0
Do, 17.01. 15:30 0
Do, 17.01. 15:00 0
Do, 17.01. 14:30 0
Link zu dieser Seite / Seite empfehlen

Das Wetter in ...